עמוד ראשי
METAR-TAF:

METAR-TAF

שדות תעופה :

טאנה, ונואטו

קו רוחב: 19-27-18S, קו אורך: 169-13-26E, גובה: 6מטר

תצפית מזג אוויר נוכחית

הדו"ח נערך לפני 2 שעות ו 52דקות, בשעה 09:00 UTC
רוח 4קשר מכיוון מזרח
טמפרטורת 24 צלסיוס
לחות 74%
לחץ 1014 hPa
ראות 10 קילומטר או יותר
עננים פזורים בגובה 2500רגל

METAR: NVVW 150900Z 09004KT 9999 SCT025 24/19 Q1014

זמן: 22:52 (11:52 UTC)

תחזית

הדו"ח נערך לפני 52דקות, בשעה 11:00 UTC
תחזית בתוקף מ 15 ב 12 UTC עד 16 ב 12 UTC
רוח 2קשר עם כיוונים משתנים
ראות 10 קילומטר או יותר
עננים פזורים בגובה 2000רגל
עננים בינוניים בגובה 4000רגל
הסתברות 30%
בין IN ו TEUTC
ראות: 9000מטר
עננים בינוניים בגובה 1800רגל
ממטרי גשם קלים,

TAF: NVVW 151100Z 1512/1612 VRB02KT 9999 SCT020 BKN040 PROB30 INTER 1512/1518 9000 -SHRA BKN018

תצפיות ותחזיות מזג אוויר לגבי יותר מ- 4,000 שדות תעופה ברחבי העולם. דוחות METAR ו- TAF.

התחנות הזמינות מסומנות בנקודות צהובות ואדומות על גבי המפה.

העבר את העכבר לנקודה הצבעונית על מנת לראות את שם התחנה.

לאחר מכן, לחץ כדי לראות את תוכן ואת תחזיות מזג האוויר.

כדי לשנות את המפה: לחץ על הכפתורים הירוקים עם הפלוס השחור כדי להתקרב; על הכפתור הירוק עם המקף כדי להתרחק; או בחיצים הירוקים למפות סמוכות.


METAR-TAF: